Time,TemperatureF,DewpointF,PressureIn,WindDirection,WindDirectionDegrees,WindSpeedMPH,WindSpeedGustMPH,Humidity,HourlyPrecipIn,Conditions,Clouds,dailyrainin,SoftwareType,DateUTC
2013-06-27 00:01:00,71.4,69.3,29.84,NNE,24,0.0,0.0,93,0.00,,,0.02,meteohub,2013-06-27 04:01:00,
2013-06-27 00:03:00,71.2,69.1,29.84,NNE,24,0.0,0.0,93,0.00,,,0.02,meteohub,2013-06-27 04:03:00,
2013-06-27 00:08:00,71.2,69.1,29.84,NNE,24,0.0,0.0,93,0.00,,,0.00,meteohub,2013-06-27 04:08:00,
2013-06-27 00:13:00,71.2,69.1,29.84,NNE,24,0.0,0.0,93,0.00,,,0.00,meteohub,2013-06-27 04:13:00,
2013-06-27 00:18:00,71.1,68.9,29.84,NNE,24,0.0,0.0,93,0.00,,,0.00,meteohub,2013-06-27 04:18:00,
2013-06-27 00:23:00,71.1,68.9,29.84,NNE,24,0.0,0.0,93,0.00,,,0.00,meteohub,2013-06-27 04:23:00,
2013-06-27 00:28:00,71.1,69.3,29.84,NNE,24,0.0,0.0,94,0.00,,,0.00,meteohub,2013-06-27 04:28:00,
2013-06-27 00:33:00,71.1,69.3,29.85,NNE,24,0.0,0.0,94,0.00,,,0.00,meteohub,2013-06-27 04:33:00,
2013-06-27 00:38:00,70.9,69.1,29.85,NNE,24,0.0,0.0,94,0.00,,,0.00,meteohub,2013-06-27 04:38:00,
2013-06-27 00:43:00,70.9,68.7,29.84,NNE,24,0.0,0.0,93,0.00,,,0.00,meteohub,2013-06-27 04:43:00,
2013-06-27 00:48:00,70.9,68.7,29.84,NNE,24,0.0,0.0,93,0.00,,,0.00,meteohub,2013-06-27 04:48:00,
2013-06-27 00:53:00,70.7,68.5,29.84,NNE,24,0.0,0.0,93,0.00,,,0.00,meteohub,2013-06-27 04:53:00,
2013-06-27 00:58:00,70.5,68.4,29.84,NNE,24,0.0,0.0,93,0.00,,,0.00,meteohub,2013-06-27 04:58:00,
2013-06-27 01:03:00,70.5,68.7,29.84,NNE,24,0.0,0.0,94,0.00,,,0.00,meteohub,2013-06-27 05:03:00,
2013-06-27 01:08:00,70.5,68.7,29.83,NNE,24,0.0,0.0,94,0.00,,,0.00,meteohub,2013-06-27 05:08:00,
2013-06-27 01:13:00,70.3,68.5,29.83,NNE,24,0.0,0.0,94,0.00,,,0.00,meteohub,2013-06-27 05:13:00,
2013-06-27 01:18:00,70.3,68.5,29.83,NNE,24,0.0,0.0,94,0.00,,,0.00,meteohub,2013-06-27 05:18:00,
2013-06-27 01:23:00,70.3,68.5,29.83,NNE,24,0.0,0.0,94,0.00,,,0.00,meteohub,2013-06-27 05:23:00,
2013-06-27 01:28:00,70.3,68.5,29.83,NNE,24,0.0,0.0,94,0.00,,,0.00,meteohub,2013-06-27 05:28:00,
2013-06-27 01:33:00,70.2,68.4,29.83,NNE,24,0.0,0.0,94,0.00,,,0.00,meteohub,2013-06-27 05:33:00,
2013-06-27 01:38:00,70.2,68.4,29.82,NNE,24,0.0,0.0,94,0.00,,,0.00,meteohub,2013-06-27 05:38:00,
2013-06-27 01:43:00,70.2,68.4,29.82,NNE,24,0.0,0.0,94,0.00,,,0.00,meteohub,2013-06-27 05:43:00,
2013-06-27 01:48:00,70.0,68.5,29.82,NNE,24,0.0,0.0,95,0.00,,,0.00,meteohub,2013-06-27 05:48:00,
2013-06-27 01:53:00,70.0,68.5,29.83,NNE,24,0.0,0.0,95,0.00,,,0.00,meteohub,2013-06-27 05:53:00,
2013-06-27 01:58:00,70.0,68.5,29.82,NNE,24,0.0,0.0,95,0.00,,,0.00,meteohub,2013-06-27 05:58:00,
2013-06-27 02:03:00,70.0,68.5,29.82,NNE,24,0.0,0.0,95,0.00,,,0.00,meteohub,2013-06-27 06:03:00,
2013-06-27 02:08:00,70.0,68.5,29.82,NNE,24,0.0,0.0,95,0.00,,,0.00,meteohub,2013-06-27 06:08:00,
2013-06-27 02:13:00,69.8,68.4,29.82,NNE,24,0.0,0.0,95,0.00,,,0.00,meteohub,2013-06-27 06:13:00,
2013-06-27 02:18:00,69.8,68.4,29.82,NNE,24,0.0,0.0,95,0.00,,,0.00,meteohub,2013-06-27 06:18:00,
2013-06-27 02:23:00,69.6,68.2,29.82,NNE,24,0.0,0.0,95,0.00,,,0.00,meteohub,2013-06-27 06:23:00,
2013-06-27 02:28:00,69.6,68.2,29.82,NNE,24,0.0,0.0,95,0.00,,,0.00,meteohub,2013-06-27 06:28:00,
2013-06-27 02:33:00,69.6,68.2,29.82,NNE,24,0.0,0.0,95,0.00,,,0.00,meteohub,2013-06-27 06:33:00,
2013-06-27 02:38:00,69.6,68.2,29.82,NNE,24,0.0,0.0,95,0.00,,,0.00,meteohub,2013-06-27 06:38:00,
2013-06-27 02:43:00,69.6,68.2,29.82,NNE,24,0.0,0.0,95,0.00,,,0.00,meteohub,2013-06-27 06:43:00,
2013-06-27 02:49:00,69.4,68.0,29.81,NNE,24,0.0,0.0,95,0.00,,,0.00,meteohub,2013-06-27 06:49:00,
2013-06-27 02:53:00,69.4,68.2,29.81,NNE,24,0.0,0.0,96,0.00,,,0.00,meteohub,2013-06-27 06:53:00,
2013-06-27 02:59:00,69.4,68.0,29.82,NNE,24,0.0,0.0,95,0.00,,,0.00,meteohub,2013-06-27 06:59:00,
2013-06-27 03:04:00,69.4,68.2,29.82,NNE,24,0.0,0.0,96,0.00,,,0.00,meteohub,2013-06-27 07:04:00,
2013-06-27 03:09:00,69.4,68.2,29.81,NNE,24,0.0,0.0,96,0.00,,,0.00,meteohub,2013-06-27 07:09:00,
2013-06-27 03:14:00,69.3,67.8,29.81,NNE,24,0.0,0.0,95,0.00,,,0.00,meteohub,2013-06-27 07:14:00,
2013-06-27 03:19:00,69.3,67.8,29.81,NNE,24,0.0,0.0,95,0.00,,,0.00,meteohub,2013-06-27 07:19:00,
2013-06-27 03:24:00,69.3,67.8,29.81,NNE,24,0.0,0.0,95,0.00,,,0.00,meteohub,2013-06-27 07:24:00,
2013-06-27 03:29:00,69.3,68.0,29.81,NNE,24,0.0,0.0,96,0.00,,,0.00,meteohub,2013-06-27 07:29:00,
2013-06-27 03:34:00,69.3,68.0,29.81,NNE,24,0.0,0.0,96,0.00,,,0.00,meteohub,2013-06-27 07:34:00,
2013-06-27 03:39:00,69.1,67.8,29.81,NNE,24,0.0,0.0,96,0.00,,,0.00,meteohub,2013-06-27 07:39:00,
2013-06-27 03:44:00,69.1,67.8,29.81,NNE,24,0.0,0.0,96,0.00,,,0.00,meteohub,2013-06-27 07:44:00,
2013-06-27 03:49:00,68.9,67.6,29.80,NNE,24,0.0,0.0,96,0.00,,,0.00,meteohub,2013-06-27 07:49:00,
2013-06-27 03:54:00,68.9,67.6,29.80,NNE,24,0.0,0.0,96,0.00,,,0.00,meteohub,2013-06-27 07:54:00,
2013-06-27 03:59:00,68.7,67.5,29.80,NNE,24,0.0,0.0,96,0.00,,,0.00,meteohub,2013-06-27 07:59:00,
2013-06-27 04:04:00,68.7,67.3,29.80,NNE,24,0.0,0.0,95,0.00,,,0.00,meteohub,2013-06-27 08:04:00,
2013-06-27 04:09:00,68.7,67.5,29.80,NNE,24,0.0,0.0,96,0.00,,,0.00,meteohub,2013-06-27 08:09:00,
2013-06-27 04:14:00,68.7,67.5,29.80,NNE,24,0.0,0.0,96,0.00,,,0.00,meteohub,2013-06-27 08:14:00,
2013-06-27 04:19:00,68.7,67.5,29.80,NNE,24,0.0,0.0,96,0.00,,,0.00,meteohub,2013-06-27 08:19:00,
2013-06-27 04:24:00,68.7,67.5,29.80,NNE,24,0.0,0.0,96,0.00,,,0.00,meteohub,2013-06-27 08:24:00,
2013-06-27 04:29:00,68.7,67.5,29.80,NNE,24,0.0,0.0,96,0.00,,,0.00,meteohub,2013-06-27 08:29:00,
2013-06-27 04:34:00,68.5,67.3,29.79,NNE,24,0.0,0.0,96,0.00,,,0.00,meteohub,2013-06-27 08:34:00,
2013-06-27 04:39:00,68.5,67.3,29.80,NNE,24,0.0,0.0,96,0.00,,,0.00,meteohub,2013-06-27 08:39:00,
2013-06-27 04:44:00,68.5,67.3,29.80,NNE,24,0.0,0.0,96,0.00,,,0.00,meteohub,2013-06-27 08:44:00,
2013-06-27 04:49:00,68.5,67.3,29.80,NNE,24,0.0,0.0,96,0.00,,,0.00,meteohub,2013-06-27 08:49:00,
2013-06-27 04:54:00,68.5,67.3,29.80,NNE,24,0.0,0.0,96,0.00,,,0.00,meteohub,2013-06-27 08:54:00,
2013-06-27 04:59:00,68.5,67.3,29.80,NNE,24,0.0,0.0,96,0.00,,,0.00,meteohub,2013-06-27 08:59:00,
2013-06-27 05:04:00,68.5,67.3,29.80,NNE,24,0.0,1.0,96,0.00,,,0.00,meteohub,2013-06-27 09:04:00,
2013-06-27 05:09:00,68.5,67.3,29.80,NNE,24,0.0,1.0,96,0.00,,,0.00,meteohub,2013-06-27 09:09:00,
2013-06-27 05:14:00,68.5,67.3,29.80,NNE,24,0.0,1.0,96,0.00,,,0.00,meteohub,2013-06-27 09:14:00,
2013-06-27 05:19:00,68.5,67.3,29.81,NNE,24,0.0,0.0,96,0.00,,,0.00,meteohub,2013-06-27 09:19:00,
2013-06-27 05:24:00,68.5,67.3,29.81,NNE,24,0.0,0.0,96,0.00,,,0.00,meteohub,2013-06-27 09:24:00,
2013-06-27 05:29:00,68.5,67.3,29.81,NNE,24,0.0,0.0,96,0.00,,,0.00,meteohub,2013-06-27 09:29:00,
2013-06-27 05:34:00,68.5,67.3,29.81,NNE,24,0.0,0.0,96,0.00,,,0.00,meteohub,2013-06-27 09:34:00,
2013-06-27 05:39:00,68.5,67.6,29.81,ENE,74,0.0,0.0,97,0.00,,,0.00,meteohub,2013-06-27 09:39:00,
2013-06-27 05:44:00,68.5,67.6,29.81,ENE,74,0.0,1.0,97,0.00,,,0.00,meteohub,2013-06-27 09:44:00,
2013-06-27 05:49:00,68.5,67.6,29.81,ENE,74,0.0,1.0,97,0.00,,,0.00,meteohub,2013-06-27 09:49:00,
2013-06-27 05:54:00,68.5,67.6,29.81,ENE,74,0.0,1.0,97,0.00,,,0.00,meteohub,2013-06-27 09:54:00,
2013-06-27 05:59:00,68.5,67.6,29.81,ENE,76,0.0,0.0,97,0.00,,,0.00,meteohub,2013-06-27 09:59:00,
2013-06-27 06:04:00,68.5,67.6,29.81,ENE,78,0.0,1.0,97,0.00,,,0.00,meteohub,2013-06-27 10:04:00,
2013-06-27 06:09:00,68.5,67.6,29.81,ENE,78,0.0,1.0,97,0.00,,,0.00,meteohub,2013-06-27 10:09:00,
2013-06-27 06:14:00,68.7,67.8,29.81,East,79,0.0,1.0,97,0.00,,,0.00,meteohub,2013-06-27 10:14:00,
2013-06-27 06:19:00,68.7,67.8,29.81,SSW,194,0.0,1.0,97,0.00,,,0.00,meteohub,2013-06-27 10:19:00,
2013-06-27 06:24:00,68.9,68.0,29.81,South,173,0.0,1.0,97,0.00,,,0.00,meteohub,2013-06-27 10:24:00,
2013-06-27 06:29:00,69.1,68.2,29.81,WNW,282,0.0,2.0,97,0.00,,,0.00,meteohub,2013-06-27 10:29:00,
2013-06-27 06:34:00,69.3,68.4,29.81,ESE,111,0.0,2.0,97,0.00,,,0.00,meteohub,2013-06-27 10:34:00,
2013-06-27 06:39:00,69.3,68.4,29.81,South,169,0.0,3.0,97,0.00,,,0.00,meteohub,2013-06-27 10:39:00,
2013-06-27 06:44:00,69.4,68.5,29.81,SW,229,0.0,3.0,97,0.00,,,0.00,meteohub,2013-06-27 10:44:00,
2013-06-27 06:49:00,69.4,68.5,29.81,SW,223,0.0,3.0,97,0.00,,,0.00,meteohub,2013-06-27 10:49:00,
2013-06-27 06:54:00,69.6,68.7,29.81,SW,223,0.0,2.0,97,0.00,,,0.00,meteohub,2013-06-27 10:54:00,
2013-06-27 06:59:00,69.6,68.7,29.81,SW,223,0.0,2.0,97,0.00,,,0.00,meteohub,2013-06-27 10:59:00,
2013-06-27 07:04:00,70.0,69.1,29.81,SW,223,0.0,1.0,97,0.00,,,0.00,meteohub,2013-06-27 11:04:00,
2013-06-27 07:09:00,70.0,69.1,29.81,SW,223,1.0,0.0,97,0.00,,,0.00,meteohub,2013-06-27 11:09:00,
2013-06-27 07:14:00,70.0,69.1,29.80,East,88,0.0,3.0,97,0.00,,,0.00,meteohub,2013-06-27 11:14:00,
2013-06-27 07:19:00,70.0,69.1,29.81,ESE,120,2.0,3.0,97,0.00,,,0.00,meteohub,2013-06-27 11:19:00,
2013-06-27 07:24:00,70.0,69.1,29.80,SW,215,0.0,4.0,97,0.00,,,0.00,meteohub,2013-06-27 11:24:00,
2013-06-27 07:29:00,70.2,69.3,29.80,SW,215,0.0,4.0,97,0.00,,,0.00,meteohub,2013-06-27 11:29:00,
2013-06-27 07:34:00,70.2,69.3,29.80,NNW,334,0.0,4.0,97,0.00,,,0.00,meteohub,2013-06-27 11:34:00,
2013-06-27 07:39:00,70.3,69.4,29.80,ENE,74,1.0,3.0,97,0.00,,,0.00,meteohub,2013-06-27 11:39:00,
2013-06-27 07:44:00,70.3,69.4,29.80,SE,124,0.0,2.0,97,0.00,,,0.00,meteohub,2013-06-27 11:44:00,
2013-06-27 07:49:00,70.3,69.4,29.79,SE,124,0.0,2.0,97,0.00,,,0.00,meteohub,2013-06-27 11:49:00,
2013-06-27 07:54:00,70.5,69.6,29.79,SE,124,0.0,2.0,97,0.00,,,0.00,meteohub,2013-06-27 11:54:00,
2013-06-27 07:59:00,70.7,69.8,29.79,SE,124,0.0,2.0,97,0.00,,,0.00,meteohub,2013-06-27 11:59:00,
2013-06-27 08:04:00,70.9,70.0,29.79,SE,124,0.0,1.0,97,0.00,,,0.00,meteohub,2013-06-27 12:04:00,
2013-06-27 08:09:00,71.1,70.2,29.79,SE,124,0.0,0.0,97,0.00,,,0.00,meteohub,2013-06-27 12:09:00,
2013-06-27 08:14:00,71.2,70.3,29.79,SE,124,0.0,0.0,97,0.00,,,0.00,meteohub,2013-06-27 12:14:00,
2013-06-27 08:19:00,71.4,70.5,29.79,SE,124,0.0,0.0,97,0.00,,,0.00,meteohub,2013-06-27 12:19:00,
2013-06-27 08:24:00,71.8,70.9,29.79,SE,124,0.0,0.0,97,0.00,,,0.00,meteohub,2013-06-27 12:24:00,
2013-06-27 08:29:00,72.1,70.9,29.78,SE,125,0.0,0.0,96,0.00,,,0.00,meteohub,2013-06-27 12:29:00,
2013-06-27 08:35:00,72.3,71.1,29.79,SSW,194,1.0,1.0,96,0.00,,,0.00,meteohub,2013-06-27 12:35:00,
2013-06-27 08:40:00,72.9,71.4,29.79,SE,138,1.0,1.0,95,0.00,,,0.00,meteohub,2013-06-27 12:40:00,
2013-06-27 08:45:00,73.2,71.4,29.79,ESE,103,4.0,4.0,94,0.00,,,0.00,meteohub,2013-06-27 12:45:00,
2013-06-27 08:50:00,73.4,71.2,29.79,SW,229,0.0,3.0,93,0.00,,,0.00,meteohub,2013-06-27 12:50:00,
2013-06-27 08:55:00,73.6,71.1,29.79,SW,219,1.0,4.0,92,0.00,,,0.00,meteohub,2013-06-27 12:55:00,
2013-06-27 09:00:00,73.6,70.7,29.79,ESE,102,0.0,4.0,91,0.00,,,0.00,meteohub,2013-06-27 13:00:00,
2013-06-27 09:05:00,73.8,70.9,29.79,SW,236,0.0,6.0,91,0.00,,,0.00,meteohub,2013-06-27 13:05:00,
2013-06-27 09:10:00,73.8,70.9,29.78,SE,138,1.0,6.0,91,0.00,,,0.00,meteohub,2013-06-27 13:10:00,
2013-06-27 09:15:00,73.8,70.7,29.78,SSW,200,1.0,6.0,90,0.00,,,0.00,meteohub,2013-06-27 13:15:00,
2013-06-27 09:20:00,73.8,70.7,29.78,ESE,106,1.0,4.0,90,0.00,,,0.00,meteohub,2013-06-27 13:20:00,
2013-06-27 09:25:00,73.9,70.9,29.78,ESE,106,0.0,4.0,90,0.00,,,0.00,meteohub,2013-06-27 13:25:00,
2013-06-27 09:30:00,74.1,71.1,29.78,South,173,0.0,4.0,90,0.00,,,0.00,meteohub,2013-06-27 13:30:00,
2013-06-27 09:35:00,74.1,70.7,29.77,SSE,165,0.0,4.0,89,0.00,,,0.00,meteohub,2013-06-27 13:35:00,
2013-06-27 09:40:00,74.1,70.7,29.78,SSW,202,0.0,4.0,89,0.00,,,0.00,meteohub,2013-06-27 13:40:00,
2013-06-27 09:45:00,73.9,70.5,29.77,SSW,211,0.0,4.0,89,0.00,,,0.00,meteohub,2013-06-27 13:45:00,
2013-06-27 09:50:00,73.9,70.2,29.77,SSE,155,2.0,2.0,88,0.00,,,0.00,meteohub,2013-06-27 13:50:00,
2013-06-27 09:55:00,73.9,70.5,29.77,SSW,207,2.0,5.0,89,0.00,,,0.00,meteohub,2013-06-27 13:55:00,
2013-06-27 10:00:00,73.9,70.5,29.77,West,279,0.0,5.0,89,0.00,,,0.00,meteohub,2013-06-27 14:00:00,
2013-06-27 10:05:00,73.9,70.5,29.77,SW,236,1.0,5.0,89,0.00,,,0.00,meteohub,2013-06-27 14:05:00,
2013-06-27 10:10:00,73.9,70.5,29.77,SW,230,0.0,4.0,89,0.00,,,0.00,meteohub,2013-06-27 14:10:00,
2013-06-27 10:15:00,73.9,70.5,29.77,SSW,211,1.0,4.0,89,0.00,,,0.00,meteohub,2013-06-27 14:15:00,
2013-06-27 10:20:00,74.1,71.1,29.76,ESE,111,0.0,6.0,90,0.00,,,0.00,meteohub,2013-06-27 14:20:00,
2013-06-27 10:25:00,74.5,71.4,29.76,SSE,147,1.0,6.0,90,0.00,,,0.00,meteohub,2013-06-27 14:25:00,
2013-06-27 10:30:00,74.5,71.1,29.76,SSE,161,0.0,5.0,89,0.00,,,0.00,meteohub,2013-06-27 14:30:00,
2013-06-27 10:35:00,74.7,71.2,29.76,ESE,117,0.0,5.0,89,0.00,,,0.00,meteohub,2013-06-27 14:35:00,
2013-06-27 10:40:00,75.0,70.9,29.76,WSW,249,0.0,5.0,87,0.00,,,0.00,meteohub,2013-06-27 14:40:00,
2013-06-27 10:45:00,75.6,71.8,29.75,East,96,0.0,5.0,88,0.00,,,0.00,meteohub,2013-06-27 14:45:00,
2013-06-27 10:50:00,76.5,72.3,29.75,SW,221,1.0,5.0,87,0.00,,,0.00,meteohub,2013-06-27 14:50:00,
2013-06-27 10:55:00,77.2,72.0,29.75,East,95,1.0,4.0,84,0.00,,,0.00,meteohub,2013-06-27 14:55:00,
2013-06-27 11:00:00,78.1,72.5,29.75,WSW,254,0.0,4.0,83,0.00,,,0.00,meteohub,2013-06-27 15:00:00,
2013-06-27 11:05:00,78.8,72.5,29.75,SSW,203,0.0,4.0,81,0.00,,,0.00,meteohub,2013-06-27 15:05:00,
2013-06-27 11:10:00,79.3,72.7,29.75,SSE,151,1.0,3.0,80,0.00,,,0.00,meteohub,2013-06-27 15:10:00,
2013-06-27 11:15:00,79.7,72.1,29.74,WSW,238,4.0,5.0,78,0.00,,,0.00,meteohub,2013-06-27 15:15:00,
2013-06-27 11:20:00,79.9,72.9,29.74,South,174,1.0,5.0,79,0.00,,,0.00,meteohub,2013-06-27 15:20:00,
2013-06-27 11:25:00,79.9,72.0,29.74,SW,236,2.0,5.0,77,0.00,,,0.00,meteohub,2013-06-27 15:25:00,
2013-06-27 11:30:00,79.9,72.3,29.74,South,173,1.0,5.0,78,0.00,,,0.00,meteohub,2013-06-27 15:30:00,
2013-06-27 11:35:00,79.7,73.0,29.74,ESE,105,2.0,5.0,80,0.00,,,0.00,meteohub,2013-06-27 15:35:00,
2013-06-27 11:40:00,80.1,73.0,29.74,ESE,115,0.0,3.0,79,0.00,,,0.00,meteohub,2013-06-27 15:40:00,
2013-06-27 11:45:00,80.4,73.8,29.73,WSW,237,0.0,5.0,80,0.00,,,0.00,meteohub,2013-06-27 15:45:00,
2013-06-27 11:50:00,80.8,72.5,29.73,NNE,22,0.0,5.0,76,0.00,,,0.00,meteohub,2013-06-27 15:50:00,
2013-06-27 11:55:00,80.8,72.9,29.73,SE,126,1.0,5.0,77,0.00,,,0.00,meteohub,2013-06-27 15:55:00,
2013-06-27 12:00:00,81.1,73.9,29.73,NNW,335,0.0,5.0,79,0.00,,,0.00,meteohub,2013-06-27 16:00:00,
2013-06-27 12:05:00,81.3,72.7,29.72,NW,305,2.0,5.0,75,0.00,,,0.00,meteohub,2013-06-27 16:05:00,
2013-06-27 12:10:00,81.7,73.4,29.72,West,267,2.0,5.0,76,0.00,,,0.00,meteohub,2013-06-27 16:10:00,
2013-06-27 12:15:00,81.9,73.2,29.72,SSW,198,2.0,6.0,75,0.00,,,0.00,meteohub,2013-06-27 16:15:00,
2013-06-27 12:20:00,82.2,73.6,29.71,SSE,167,2.0,6.0,75,0.00,,,0.00,meteohub,2013-06-27 16:20:00,
2013-06-27 12:25:00,82.8,73.6,29.71,SSW,209,3.0,5.0,74,0.00,,,0.00,meteohub,2013-06-27 16:25:00,
2013-06-27 12:30:00,83.3,73.4,29.71,North,355,1.0,7.0,72,0.00,,,0.00,meteohub,2013-06-27 16:30:00,
2013-06-27 12:35:00,83.5,73.6,29.71,SE,145,0.0,7.0,72,0.00,,,0.00,meteohub,2013-06-27 16:35:00,
2013-06-27 12:40:00,83.8,73.8,29.71,WNW,301,2.0,7.0,72,0.00,,,0.00,meteohub,2013-06-27 16:40:00,
2013-06-27 12:45:00,83.8,73.0,29.70,SSW,213,3.0,7.0,70,0.00,,,0.00,meteohub,2013-06-27 16:45:00,
2013-06-27 12:50:00,83.7,74.8,29.71,South,176,1.0,7.0,75,0.00,,,0.00,meteohub,2013-06-27 16:50:00,
2013-06-27 12:55:00,83.7,74.1,29.71,South,182,5.0,6.0,73,0.00,,,0.00,meteohub,2013-06-27 16:55:00,
2013-06-27 13:00:00,83.5,74.3,29.71,NNW,334,2.0,6.0,74,0.00,,,0.00,meteohub,2013-06-27 17:00:00,
2013-06-27 13:05:00,83.1,73.2,29.70,WNW,303,1.0,6.0,72,0.00,,,0.00,meteohub,2013-06-27 17:05:00,
2013-06-27 13:10:00,82.6,73.8,29.70,SSW,207,0.0,6.0,75,0.00,,,0.00,meteohub,2013-06-27 17:10:00,
2013-06-27 13:15:00,82.0,72.9,29.70,ESE,107,0.0,7.0,74,0.00,,,0.00,meteohub,2013-06-27 17:15:00,
2013-06-27 13:20:00,81.7,73.8,29.70,North,0,0.0,7.0,77,0.00,,,0.00,meteohub,2013-06-27 17:20:00,
2013-06-27 13:25:00,81.1,73.6,29.70,North,350,1.0,7.0,78,0.00,,,0.00,meteohub,2013-06-27 17:25:00,
2013-06-27 13:30:00,81.1,73.9,29.70,ENE,78,0.0,6.0,79,0.00,,,0.00,meteohub,2013-06-27 17:30:00,
2013-06-27 13:35:00,81.0,73.0,29.70,NNW,340,0.0,3.0,77,0.00,,,0.00,meteohub,2013-06-27 17:35:00,
2013-06-27 13:40:00,80.8,73.2,29.69,South,171,2.0,6.0,78,0.00,,,0.00,meteohub,2013-06-27 17:40:00,
2013-06-27 13:45:00,80.8,73.2,29.69,West,263,1.0,6.0,78,0.00,,,0.00,meteohub,2013-06-27 17:45:00,
2013-06-27 13:50:00,80.8,72.5,29.69,North,355,2.0,6.0,76,0.00,,,0.00,meteohub,2013-06-27 17:50:00,
2013-06-27 13:55:00,80.8,73.6,29.69,NNW,328,1.0,6.0,79,0.00,,,0.00,meteohub,2013-06-27 17:55:00,
2013-06-27 14:01:00,80.8,72.9,29.68,South,188,1.0,6.0,77,0.00,,,0.00,meteohub,2013-06-27 18:01:00,
2013-06-27 14:06:00,80.4,72.9,29.68,South,180,5.0,5.0,78,0.00,,,0.00,meteohub,2013-06-27 18:06:00,
2013-06-27 14:11:00,80.2,73.0,29.68,SSE,159,3.0,7.0,79,0.00,,,0.00,meteohub,2013-06-27 18:11:00,
2013-06-27 14:16:00,80.1,73.0,29.68,NNE,19,0.0,7.0,79,0.00,,,0.00,meteohub,2013-06-27 18:16:00,
2013-06-27 14:21:00,80.2,73.6,29.68,WNW,291,3.0,7.0,80,0.00,,,0.00,meteohub,2013-06-27 18:21:00,
2013-06-27 14:26:00,80.2,73.0,29.68,SSW,200,2.0,7.0,79,0.00,,,0.00,meteohub,2013-06-27 18:26:00,
2013-06-27 14:31:00,80.1,73.0,29.68,SSE,158,0.0,7.0,79,0.00,,,0.00,meteohub,2013-06-27 18:31:00,
2013-06-27 14:36:00,79.3,72.3,29.68,SSW,199,3.0,7.0,79,0.00,,,0.00,meteohub,2013-06-27 18:36:00,
2013-06-27 14:41:00,78.6,72.0,29.68,SW,215,0.0,10.0,80,0.00,,,0.00,meteohub,2013-06-27 18:41:00,
2013-06-27 14:46:00,77.9,72.0,29.68,NNW,344,1.0,10.0,82,0.00,,,0.00,meteohub,2013-06-27 18:46:00,
2013-06-27 14:51:00,77.4,71.8,29.68,WSW,252,0.0,6.0,83,0.00,,,0.00,meteohub,2013-06-27 18:51:00,
2013-06-27 14:56:00,77.0,71.4,29.68,NNE,19,3.0,6.0,83,0.00,,,0.00,meteohub,2013-06-27 18:56:00,
2013-06-27 15:01:00,76.8,71.2,29.68,SSW,192,2.0,6.0,83,0.00,,,0.00,meteohub,2013-06-27 19:01:00,
2013-06-27 15:06:00,76.6,71.4,29.68,SSW,197,0.0,5.0,84,0.00,,,0.00,meteohub,2013-06-27 19:06:00,
2013-06-27 15:11:00,76.8,71.2,29.68,WSW,239,0.0,5.0,83,0.00,,,0.00,meteohub,2013-06-27 19:11:00,
2013-06-27 15:16:00,77.0,71.4,29.68,SSE,161,0.0,5.0,83,0.00,,,0.00,meteohub,2013-06-27 19:16:00,
2013-06-27 15:21:00,76.8,70.9,29.68,ESE,119,4.0,4.0,82,0.00,,,0.00,meteohub,2013-06-27 19:21:00,
2013-06-27 15:26:00,76.6,71.1,29.68,SW,232,2.0,9.0,83,0.00,,,0.00,meteohub,2013-06-27 19:26:00,
2013-06-27 15:31:00,76.6,71.4,29.68,SSW,198,0.0,9.0,84,0.00,,,0.00,meteohub,2013-06-27 19:31:00,
2013-06-27 15:36:00,76.3,70.7,29.68,West,281,1.0,6.0,83,0.00,,,0.00,meteohub,2013-06-27 19:36:00,
2013-06-27 15:41:00,76.1,70.5,29.67,NW,318,3.0,7.0,83,0.00,,,0.00,meteohub,2013-06-27 19:41:00,
2013-06-27 15:46:00,75.9,70.7,29.67,SSE,150,1.0,7.0,84,0.00,,,0.00,meteohub,2013-06-27 19:46:00,
2013-06-27 15:51:00,75.9,70.7,29.66,North,355,0.0,7.0,84,0.00,,,0.00,meteohub,2013-06-27 19:51:00,
2013-06-27 15:56:00,75.9,70.7,29.66,West,265,1.0,8.0,84,0.00,,,0.00,meteohub,2013-06-27 19:56:00,
2013-06-27 16:01:00,75.9,71.1,29.66,SW,229,0.0,8.0,85,0.00,,,0.00,meteohub,2013-06-27 20:01:00,
2013-06-27 16:06:00,76.1,70.9,29.65,WNW,302,0.0,8.0,84,0.00,,,0.00,meteohub,2013-06-27 20:06:00,
2013-06-27 16:11:00,76.3,71.4,29.65,SSW,202,0.0,4.0,85,0.00,,,0.00,meteohub,2013-06-27 20:11:00,
2013-06-27 16:16:00,76.5,71.6,29.65,North,10,0.0,4.0,85,0.00,,,0.00,meteohub,2013-06-27 20:16:00,
2013-06-27 16:21:00,76.6,71.8,29.65,SW,226,1.0,3.0,85,0.00,,,0.00,meteohub,2013-06-27 20:21:00,
2013-06-27 16:26:00,76.8,71.6,29.65,South,180,0.0,3.0,84,0.00,,,0.00,meteohub,2013-06-27 20:26:00,
2013-06-27 16:35:00,77.0,72.1,29.65,SW,232,0.0,3.0,85,0.00,,,0.00,meteohub,2013-06-27 20:35:00,
2013-06-27 16:42:00,77.4,73.2,29.64,SW,217,1.0,2.0,87,0.00,,,0.00,meteohub,2013-06-27 20:42:00,
2013-06-27 16:47:00,77.7,72.1,29.64,SE,126,0.0,3.0,83,0.00,,,0.00,meteohub,2013-06-27 20:47:00,
2013-06-27 16:52:00,77.9,72.3,29.64,SE,131,2.0,3.0,83,0.00,,,0.00,meteohub,2013-06-27 20:52:00,
2013-06-27 16:57:00,77.9,71.6,29.64,NNW,340,0.0,5.0,81,0.00,,,0.00,meteohub,2013-06-27 20:57:00,
2013-06-27 17:02:00,78.1,72.1,29.64,SSW,194,3.0,5.0,82,0.00,,,0.00,meteohub,2013-06-27 21:02:00,
2013-06-27 17:07:00,78.1,71.8,29.63,SW,229,0.0,5.0,81,0.00,,,0.00,meteohub,2013-06-27 21:07:00,
2013-06-27 17:12:00,78.6,72.7,29.63,WSW,247,2.0,3.0,82,0.00,,,0.00,meteohub,2013-06-27 21:12:00,
2013-06-27 17:17:00,79.0,72.7,29.63,West,268,0.0,5.0,81,0.00,,,0.00,meteohub,2013-06-27 21:17:00,
2013-06-27 17:22:00,79.0,72.7,29.63,WSW,257,0.0,5.0,81,0.00,,,0.00,meteohub,2013-06-27 21:22:00,
2013-06-27 17:27:00,79.0,72.7,29.63,North,5,0.0,5.0,81,0.00,,,0.00,meteohub,2013-06-27 21:27:00,
2013-06-27 17:32:00,79.2,72.5,29.63,WSW,246,0.0,5.0,80,0.00,,,0.00,meteohub,2013-06-27 21:32:00,
2013-06-27 17:37:00,79.3,72.3,29.63,South,171,0.0,4.0,79,0.00,,,0.00,meteohub,2013-06-27 21:37:00,
2013-06-27 17:42:00,79.3,72.7,29.63,NNW,340,0.0,3.0,80,0.00,,,0.00,meteohub,2013-06-27 21:42:00,
2013-06-27 17:49:00,79.5,72.5,29.63,South,184,1.0,3.0,79,0.00,,,0.00,meteohub,2013-06-27 21:49:00,
2013-06-27 17:54:00,79.3,72.0,29.63,NW,315,2.0,6.0,78,0.00,,,0.00,meteohub,2013-06-27 21:54:00,
2013-06-27 18:00:00,79.2,72.1,29.63,North,0,2.0,6.0,79,0.00,,,0.00,meteohub,2013-06-27 22:00:00,
2013-06-27 18:05:00,79.0,72.3,29.63,NNW,337,4.0,4.0,80,0.00,,,0.00,meteohub,2013-06-27 22:05:00,
2013-06-27 18:10:00,78.8,72.5,29.63,SE,135,0.0,4.0,81,0.00,,,0.00,meteohub,2013-06-27 22:10:00,
2013-06-27 18:17:00,79.0,72.3,29.63,North,11,0.0,4.0,80,0.00,,,0.00,meteohub,2013-06-27 22:17:00,
2013-06-27 18:22:00,79.5,72.1,29.63,South,175,3.0,3.0,78,0.00,,,0.00,meteohub,2013-06-27 22:22:00,
2013-06-27 18:27:00,79.5,72.1,29.64,SSE,166,0.0,3.0,78,0.00,,,0.00,meteohub,2013-06-27 22:27:00,
2013-06-27 18:34:00,79.7,72.1,29.63,NE,51,1.0,3.0,78,0.00,,,0.00,meteohub,2013-06-27 22:34:00,
2013-06-27 18:40:00,79.5,72.1,29.64,SSW,207,0.0,4.0,78,0.00,,,0.00,meteohub,2013-06-27 22:40:00,
2013-06-27 18:47:00,79.3,72.0,29.64,WSW,258,0.0,5.0,78,0.00,,,0.00,meteohub,2013-06-27 22:47:00,
2013-06-27 18:54:00,79.2,71.8,29.64,SSW,207,1.0,7.0,78,0.00,,,0.00,meteohub,2013-06-27 22:54:00,
2013-06-27 19:01:00,78.8,71.8,29.64,NW,323,0.0,2.0,79,0.00,,,0.00,meteohub,2013-06-27 23:01:00,
2013-06-27 19:07:00,78.6,71.6,29.65,NNW,348,0.0,3.0,79,0.00,,,0.00,meteohub,2013-06-27 23:07:00,
2013-06-27 19:12:00,78.6,72.0,29.65,NNW,347,0.0,4.0,80,0.00,,,0.00,meteohub,2013-06-27 23:12:00,
2013-06-27 19:17:00,78.4,71.8,29.65,WNW,302,2.0,4.0,80,0.00,,,0.00,meteohub,2013-06-27 23:17:00,
2013-06-27 19:22:00,78.4,71.1,29.65,NNW,337,0.0,3.0,78,0.00,,,0.00,meteohub,2013-06-27 23:22:00,
2013-06-27 19:27:00,78.4,71.8,29.65,NNW,337,0.0,5.0,80,0.00,,,0.00,meteohub,2013-06-27 23:27:00,
2013-06-27 19:32:00,78.4,71.4,29.65,NNW,337,0.0,5.0,79,0.00,,,0.00,meteohub,2013-06-27 23:32:00,
2013-06-27 19:38:00,78.4,71.8,29.65,South,189,0.0,5.0,80,0.00,,,0.00,meteohub,2013-06-27 23:38:00,
2013-06-27 19:45:00,78.4,71.8,29.65,SSW,195,0.0,3.0,80,0.00,,,0.00,meteohub,2013-06-27 23:45:00,
2013-06-27 19:53:00,78.3,72.0,29.64,SSW,195,0.0,3.0,81,0.00,,,0.00,meteohub,2013-06-27 23:53:00,
2013-06-27 19:58:00,78.3,72.0,29.64,SSW,200,0.0,2.0,81,0.00,,,0.00,meteohub,2013-06-27 23:58:00,
2013-06-27 20:07:00,78.1,72.1,29.64,SSW,196,0.0,2.0,82,0.00,,,0.00,meteohub,2013-06-28 00:07:00,
2013-06-27 20:12:00,78.1,71.8,29.64,SSW,196,0.0,1.0,81,0.00,,,0.00,meteohub,2013-06-28 00:12:00,
2013-06-27 20:20:00,78.1,71.8,29.64,SSW,196,0.0,1.0,81,0.00,,,0.00,meteohub,2013-06-28 00:20:00,
2013-06-27 20:25:00,77.7,71.8,29.64,SSW,196,0.0,4.0,82,0.00,,,0.00,meteohub,2013-06-28 00:25:00,
2013-06-27 20:32:00,77.7,71.8,29.64,SSW,196,0.0,4.0,82,0.00,,,0.00,meteohub,2013-06-28 00:32:00,
2013-06-27 20:37:00,77.5,71.6,29.64,SSW,196,0.0,4.0,82,0.00,,,0.00,meteohub,2013-06-28 00:37:00,
2013-06-27 20:44:00,77.4,71.8,29.64,SSW,198,0.0,1.0,83,0.00,,,0.00,meteohub,2013-06-28 00:44:00,
2013-06-27 20:51:00,77.2,71.6,29.64,SSW,198,0.0,1.0,83,0.00,,,0.00,meteohub,2013-06-28 00:51:00,
2013-06-27 20:56:00,77.2,71.6,29.65,SSW,197,0.0,1.0,83,0.00,,,0.00,meteohub,2013-06-28 00:56:00,
2013-06-27 21:02:00,77.2,72.0,29.65,SW,219,2.0,2.0,84,0.00,,,0.00,meteohub,2013-06-28 01:02:00,
2013-06-27 21:07:00,77.0,72.1,29.65,ESE,117,2.0,3.0,85,0.00,,,0.00,meteohub,2013-06-28 01:07:00,
2013-06-27 21:12:00,77.2,72.3,29.65,NE,52,2.0,7.0,85,0.00,,,0.00,meteohub,2013-06-28 01:12:00,
2013-06-27 21:18:00,77.2,72.3,29.65,SSW,204,0.0,7.0,85,0.00,,,0.00,meteohub,2013-06-28 01:18:00,
2013-06-27 21:24:00,77.0,71.8,29.65,SSW,204,1.0,7.0,84,0.00,,,0.00,meteohub,2013-06-28 01:24:00,
2013-06-27 21:30:00,76.8,72.0,29.65,SE,145,5.0,5.0,85,0.00,,,0.00,meteohub,2013-06-28 01:30:00,
2013-06-27 21:37:00,76.5,71.6,29.65,SW,225,3.0,7.0,85,0.00,,,0.00,meteohub,2013-06-28 01:37:00,
2013-06-27 21:42:00,76.3,71.8,29.66,SW,232,0.0,7.0,86,0.00,,,0.00,meteohub,2013-06-28 01:42:00,
2013-06-27 21:47:00,76.1,72.0,29.66,SSW,203,0.0,4.0,87,0.00,,,0.00,meteohub,2013-06-28 01:47:00,
2013-06-27 21:52:00,75.7,72.0,29.66,SSW,207,0.0,4.0,88,0.01,,,0.01,meteohub,2013-06-28 01:52:00,
2013-06-27 21:57:00,75.4,71.6,29.67,NW,305,1.0,3.0,88,0.01,,,0.01,meteohub,2013-06-28 01:57:00,
2013-06-27 22:02:00,75.2,72.1,29.66,SW,231,1.0,3.0,90,0.01,,,0.01,meteohub,2013-06-28 02:02:00,
2013-06-27 22:07:00,74.8,72.0,29.66,NW,311,0.0,3.0,91,0.01,,,0.01,meteohub,2013-06-28 02:07:00,
2013-06-27 22:12:00,74.7,71.8,29.67,South,188,0.0,3.0,91,0.01,,,0.01,meteohub,2013-06-28 02:12:00,
2013-06-27 22:17:00,74.5,71.6,29.66,South,180,0.0,3.0,91,0.02,,,0.02,meteohub,2013-06-28 02:17:00,
2013-06-27 22:22:00,74.3,71.8,29.66,SW,223,0.0,5.0,92,0.02,,,0.02,meteohub,2013-06-28 02:22:00,
2013-06-27 22:27:00,74.1,71.6,29.66,SW,223,0.0,5.0,92,0.02,,,0.02,meteohub,2013-06-28 02:27:00,
2013-06-27 22:32:00,73.9,71.4,29.66,SW,223,0.0,2.0,92,0.02,,,0.02,meteohub,2013-06-28 02:32:00,
2013-06-27 22:39:00,73.8,71.2,29.66,SW,223,0.0,1.0,92,0.02,,,0.02,meteohub,2013-06-28 02:39:00,
2013-06-27 22:44:00,73.6,71.4,29.65,SW,223,0.0,0.0,93,0.02,,,0.02,meteohub,2013-06-28 02:44:00,
2013-06-27 22:51:00,73.6,71.4,29.65,SW,223,0.0,0.0,93,0.02,,,0.02,meteohub,2013-06-28 02:51:00,
2013-06-27 22:56:00,73.2,71.1,29.65,SW,223,0.0,0.0,93,0.01,,,0.02,meteohub,2013-06-28 02:56:00,
2013-06-27 23:02:00,73.0,70.9,29.65,SW,223,0.0,0.0,93,0.01,,,0.02,meteohub,2013-06-28 03:02:00,
2013-06-27 23:07:00,73.0,71.2,29.65,SW,223,0.0,0.0,94,0.01,,,0.02,meteohub,2013-06-28 03:07:00,
2013-06-27 23:12:00,72.9,71.1,29.65,SW,223,0.0,0.0,94,0.00,,,0.02,meteohub,2013-06-28 03:12:00,
2013-06-27 23:17:00,72.9,71.1,29.65,SW,223,0.0,0.0,94,0.00,,,0.02,meteohub,2013-06-28 03:17:00,
2013-06-27 23:22:00,72.9,71.1,29.65,SW,223,0.0,0.0,94,0.00,,,0.02,meteohub,2013-06-28 03:22:00,
2013-06-27 23:28:00,72.9,71.1,29.65,SW,223,0.0,0.0,94,0.00,,,0.02,meteohub,2013-06-28 03:28:00,
2013-06-27 23:36:00,72.7,70.9,29.65,SW,223,0.0,0.0,94,0.00,,,0.02,meteohub,2013-06-28 03:36:00,
2013-06-27 23:42:00,72.5,71.1,29.65,SW,223,0.0,0.0,95,0.00,,,0.02,meteohub,2013-06-28 03:42:00,
2013-06-27 23:47:00,72.3,70.9,29.65,SW,223,0.0,0.0,95,0.00,,,0.02,meteohub,2013-06-28 03:47:00,
2013-06-27 23:52:00,72.3,70.9,29.65,SW,223,0.0,0.0,95,0.00,,,0.02,meteohub,2013-06-28 03:52:00,
2013-06-27 23:57:00,72.3,70.9,29.64,SW,223,0.0,0.0,95,0.00,,,0.02,meteohub,2013-06-28 03:57:00,